sensor_id;sensor_type;location;lat;lon;timestamp;P1;durP1;ratioP1;P2;durP2;ratioP2
22829;SDS011;11581;51.250;6.778;2023-07-30T00:00:52;3.22;;;1.58;;
22829;SDS011;11581;51.250;6.778;2023-07-30T00:03:21;2.90;;;1.50;;
22829;SDS011;11581;51.250;6.778;2023-07-30T00:05:53;5.80;;;1.90;;
22829;SDS011;11581;51.250;6.778;2023-07-30T00:08:21;5.47;;;2.22;;
22829;SDS011;11581;51.250;6.778;2023-07-30T00:10:48;3.30;;;1.55;;
22829;SDS011;11581;51.250;6.778;2023-07-30T00:13:15;3.80;;;1.88;;
22829;SDS011;11581;51.250;6.778;2023-07-30T00:15:42;5.78;;;2.20;;
22829;SDS011;11581;51.250;6.778;2023-07-30T00:18:12;5.35;;;2.13;;
22829;SDS011;11581;51.250;6.778;2023-07-30T00:20:41;6.00;;;1.85;;
22829;SDS011;11581;51.250;6.778;2023-07-30T00:23:08;3.45;;;1.48;;
22829;SDS011;11581;51.250;6.778;2023-07-30T00:25:36;6.32;;;1.40;;
22829;SDS011;11581;51.250;6.778;2023-07-30T00:28:03;9.05;;;1.95;;
22829;SDS011;11581;51.250;6.778;2023-07-30T00:30:32;4.25;;;1.85;;
22829;SDS011;11581;51.250;6.778;2023-07-30T00:32:59;6.15;;;1.77;;
22829;SDS011;11581;51.250;6.778;2023-07-30T00:35:26;5.38;;;1.65;;
22829;SDS011;11581;51.250;6.778;2023-07-30T00:37:54;5.28;;;1.70;;
22829;SDS011;11581;51.250;6.778;2023-07-30T00:40:22;3.00;;;1.48;;
22829;SDS011;11581;51.250;6.778;2023-07-30T00:42:49;7.53;;;2.20;;
22829;SDS011;11581;51.250;6.778;2023-07-30T00:45:16;4.28;;;1.70;;
22829;SDS011;11581;51.250;6.778;2023-07-30T00:47:43;5.32;;;2.25;;
22829;SDS011;11581;51.250;6.778;2023-07-30T00:50:14;5.78;;;2.03;;
22829;SDS011;11581;51.250;6.778;2023-07-30T00:52:52;5.32;;;1.60;;
22829;SDS011;11581;51.250;6.778;2023-07-30T00:55:21;6.30;;;2.25;;
22829;SDS011;11581;51.250;6.778;2023-07-30T00:57:48;5.88;;;1.60;;
22829;SDS011;11581;51.250;6.778;2023-07-30T01:00:15;5.38;;;1.90;;
22829;SDS011;11581;51.250;6.778;2023-07-30T01:02:43;4.10;;;1.52;;
22829;SDS011;11581;51.250;6.778;2023-07-30T01:05:10;3.67;;;1.85;;
22829;SDS011;11581;51.250;6.778;2023-07-30T01:07:39;2.53;;;1.48;;
22829;SDS011;11581;51.250;6.778;2023-07-30T01:10:06;5.03;;;1.88;;
22829;SDS011;11581;51.250;6.778;2023-07-30T01:12:38;4.38;;;1.35;;
22829;SDS011;11581;51.250;6.778;2023-07-30T01:15:07;6.00;;;1.88;;
22829;SDS011;11581;51.250;6.778;2023-07-30T01:17:35;5.47;;;2.50;;
22829;SDS011;11581;51.250;6.778;2023-07-30T01:20:03;3.10;;;1.42;;
22829;SDS011;11581;51.250;6.778;2023-07-30T01:22:32;6.38;;;1.60;;
22829;SDS011;11581;51.250;6.778;2023-07-30T01:24:59;3.20;;;1.63;;
22829;SDS011;11581;51.250;6.778;2023-07-30T01:27:27;5.57;;;1.65;;
22829;SDS011;11581;51.250;6.778;2023-07-30T01:30:01;4.63;;;1.45;;
22829;SDS011;11581;51.250;6.778;2023-07-30T01:32:32;4.88;;;1.48;;
22829;SDS011;11581;51.250;6.778;2023-07-30T01:35:00;3.80;;;1.67;;
22829;SDS011;11581;51.250;6.778;2023-07-30T01:37:34;4.47;;;1.30;;
22829;SDS011;11581;51.250;6.778;2023-07-30T01:40:04;4.78;;;1.55;;
22829;SDS011;11581;51.250;6.778;2023-07-30T01:42:32;3.03;;;1.58;;
22829;SDS011;11581;51.250;6.778;2023-07-30T01:44:59;4.85;;;1.48;;
22829;SDS011;11581;51.250;6.778;2023-07-30T01:47:26;3.47;;;1.38;;
22829;SDS011;11581;51.250;6.778;2023-07-30T01:49:54;5.35;;;1.70;;
22829;SDS011;11581;51.250;6.778;2023-07-30T01:52:21;4.30;;;1.48;;
22829;SDS011;11581;51.250;6.778;2023-07-30T01:54:50;4.53;;;1.67;;
22829;SDS011;11581;51.250;6.778;2023-07-30T01:57:31;4.57;;;1.52;;
22829;SDS011;11581;51.250;6.778;2023-07-30T01:59:58;6.63;;;1.80;;
22829;SDS011;11581;51.250;6.778;2023-07-30T02:02:25;5.30;;;1.80;;
22829;SDS011;11581;51.250;6.778;2023-07-30T02:04:52;2.25;;;1.38;;
22829;SDS011;11581;51.250;6.778;2023-07-30T02:07:19;4.60;;;2.05;;
22829;SDS011;11581;51.250;6.778;2023-07-30T02:09:47;6.55;;;1.70;;
22829;SDS011;11581;51.250;6.778;2023-07-30T02:12:15;10.48;;;2.00;;
22829;SDS011;11581;51.250;6.778;2023-07-30T02:14:44;2.85;;;1.40;;
22829;SDS011;11581;51.250;6.778;2023-07-30T02:17:11;6.82;;;1.55;;
22829;SDS011;11581;51.250;6.778;2023-07-30T02:19:38;4.28;;;1.67;;
22829;SDS011;11581;51.250;6.778;2023-07-30T02:22:06;4.07;;;1.60;;
22829;SDS011;11581;51.250;6.778;2023-07-30T02:24:34;6.70;;;2.20;;
22829;SDS011;11581;51.250;6.778;2023-07-30T02:27:02;8.18;;;2.28;;
22829;SDS011;11581;51.250;6.778;2023-07-30T02:29:31;6.50;;;2.50;;
22829;SDS011;11581;51.250;6.778;2023-07-30T02:31:57;8.93;;;1.88;;
22829;SDS011;11581;51.250;6.778;2023-07-30T02:34:26;6.10;;;1.70;;
22829;SDS011;11581;51.250;6.778;2023-07-30T02:36:53;5.50;;;1.90;;
22829;SDS011;11581;51.250;6.778;2023-07-30T02:39:20;4.22;;;1.60;;
22829;SDS011;11581;51.250;6.778;2023-07-30T02:41:47;5.45;;;1.92;;
22829;SDS011;11581;51.250;6.778;2023-07-30T02:44:13;3.60;;;1.77;;
22829;SDS011;11581;51.250;6.778;2023-07-30T02:46:42;9.25;;;1.90;;
22829;SDS011;11581;51.250;6.778;2023-07-30T02:49:09;5.50;;;1.65;;
22829;SDS011;11581;51.250;6.778;2023-07-30T02:51:35;9.63;;;1.92;;
22829;SDS011;11581;51.250;6.778;2023-07-30T02:54:04;5.40;;;1.98;;
22829;SDS011;11581;51.250;6.778;2023-07-30T02:56:32;4.22;;;1.90;;
22829;SDS011;11581;51.250;6.778;2023-07-30T02:59:01;4.88;;;1.50;;
22829;SDS011;11581;51.250;6.778;2023-07-30T03:01:28;7.75;;;1.67;;
22829;SDS011;11581;51.250;6.778;2023-07-30T03:03:57;7.68;;;2.15;;
22829;SDS011;11581;51.250;6.778;2023-07-30T03:06:24;2.97;;;1.70;;
22829;SDS011;11581;51.250;6.778;2023-07-30T03:08:52;4.30;;;1.77;;
22829;SDS011;11581;51.250;6.778;2023-07-30T03:11:19;5.90;;;1.70;;
22829;SDS011;11581;51.250;6.778;2023-07-30T03:13:45;8.40;;;2.20;;
22829;SDS011;11581;51.250;6.778;2023-07-30T03:16:13;7.65;;;2.33;;
22829;SDS011;11581;51.250;6.778;2023-07-30T03:18:39;7.57;;;1.90;;
22829;SDS011;11581;51.250;6.778;2023-07-30T03:21:08;5.35;;;1.95;;
22829;SDS011;11581;51.250;6.778;2023-07-30T03:23:34;5.82;;;1.92;;
22829;SDS011;11581;51.250;6.778;2023-07-30T03:26:03;6.15;;;2.35;;
22829;SDS011;11581;51.250;6.778;2023-07-30T03:28:30;5.45;;;2.05;;
22829;SDS011;11581;51.250;6.778;2023-07-30T03:30:58;4.30;;;1.90;;
22829;SDS011;11581;51.250;6.778;2023-07-30T03:33:25;4.70;;;1.90;;
22829;SDS011;11581;51.250;6.778;2023-07-30T03:35:53;8.20;;;2.08;;
22829;SDS011;11581;51.250;6.778;2023-07-30T03:38:23;8.18;;;2.35;;
22829;SDS011;11581;51.250;6.778;2023-07-30T03:40:50;6.63;;;1.85;;
22829;SDS011;11581;51.250;6.778;2023-07-30T03:43:17;3.90;;;1.98;;
22829;SDS011;11581;51.250;6.778;2023-07-30T03:45:44;7.45;;;2.40;;
22829;SDS011;11581;51.250;6.778;2023-07-30T03:48:11;5.05;;;2.13;;
22829;SDS011;11581;51.250;6.778;2023-07-30T03:50:39;4.43;;;1.90;;
22829;SDS011;11581;51.250;6.778;2023-07-30T03:53:07;6.30;;;2.05;;
22829;SDS011;11581;51.250;6.778;2023-07-30T03:55:36;6.97;;;2.28;;
22829;SDS011;11581;51.250;6.778;2023-07-30T03:58:03;6.57;;;2.10;;
22829;SDS011;11581;51.250;6.778;2023-07-30T04:00:29;8.35;;;1.88;;
22829;SDS011;11581;51.250;6.778;2023-07-30T04:02:56;8.20;;;2.05;;
22829;SDS011;11581;51.250;6.778;2023-07-30T04:05:24;7.75;;;1.98;;
22829;SDS011;11581;51.250;6.778;2023-07-30T04:07:50;5.70;;;1.88;;
22829;SDS011;11581;51.250;6.778;2023-07-30T04:10:17;7.25;;;1.90;;
22829;SDS011;11581;51.250;6.778;2023-07-30T04:12:46;5.35;;;1.92;;
22829;SDS011;11581;51.250;6.778;2023-07-30T04:15:13;6.80;;;2.63;;
22829;SDS011;11581;51.250;6.778;2023-07-30T04:17:40;6.78;;;2.10;;
22829;SDS011;11581;51.250;6.778;2023-07-30T04:20:08;5.85;;;2.38;;
22829;SDS011;11581;51.250;6.778;2023-07-30T04:22:38;7.10;;;1.73;;
22829;SDS011;11581;51.250;6.778;2023-07-30T04:25:07;11.38;;;2.10;;
22829;SDS011;11581;51.250;6.778;2023-07-30T04:27:36;7.95;;;2.60;;
22829;SDS011;11581;51.250;6.778;2023-07-30T04:30:05;7.47;;;2.55;;
22829;SDS011;11581;51.250;6.778;2023-07-30T04:32:36;6.57;;;1.80;;
22829;SDS011;11581;51.250;6.778;2023-07-30T04:35:03;6.18;;;1.80;;
22829;SDS011;11581;51.250;6.778;2023-07-30T04:37:31;5.78;;;1.60;;
22829;SDS011;11581;51.250;6.778;2023-07-30T04:39:58;4.93;;;1.70;;
22829;SDS011;11581;51.250;6.778;2023-07-30T04:42:29;5.90;;;1.83;;
22829;SDS011;11581;51.250;6.778;2023-07-30T04:44:55;8.38;;;2.58;;
22829;SDS011;11581;51.250;6.778;2023-07-30T04:47:24;4.80;;;1.80;;
22829;SDS011;11581;51.250;6.778;2023-07-30T04:49:50;5.85;;;1.63;;
22829;SDS011;11581;51.250;6.778;2023-07-30T04:52:18;6.68;;;1.92;;
22829;SDS011;11581;51.250;6.778;2023-07-30T04:54:45;5.00;;;1.63;;
22829;SDS011;11581;51.250;6.778;2023-07-30T04:57:11;7.38;;;1.88;;
22829;SDS011;11581;51.250;6.778;2023-07-30T04:59:38;4.28;;;1.67;;
22829;SDS011;11581;51.250;6.778;2023-07-30T05:02:06;4.25;;;1.60;;
22829;SDS011;11581;51.250;6.778;2023-07-30T05:04:35;4.57;;;1.45;;
22829;SDS011;11581;51.250;6.778;2023-07-30T05:07:02;8.20;;;1.67;;
22829;SDS011;11581;51.250;6.778;2023-07-30T05:09:30;8.57;;;1.73;;
22829;SDS011;11581;51.250;6.778;2023-07-30T05:11:57;5.07;;;1.38;;
22829;SDS011;11581;51.250;6.778;2023-07-30T05:14:23;3.40;;;1.48;;
22829;SDS011;11581;51.250;6.778;2023-07-30T05:16:51;6.38;;;1.50;;
22829;SDS011;11581;51.250;6.778;2023-07-30T05:19:18;7.80;;;1.30;;
22829;SDS011;11581;51.250;6.778;2023-07-30T05:21:46;4.28;;;1.58;;
22829;SDS011;11581;51.250;6.778;2023-07-30T05:24:13;6.68;;;1.80;;
22829;SDS011;11581;51.250;6.778;2023-07-30T05:26:40;5.53;;;1.15;;
22829;SDS011;11581;51.250;6.778;2023-07-30T05:29:06;3.97;;;1.10;;
22829;SDS011;11581;51.250;6.778;2023-07-30T05:31:36;3.80;;;1.10;;
22829;SDS011;11581;51.250;6.778;2023-07-30T05:34:02;7.22;;;1.58;;
22829;SDS011;11581;51.250;6.778;2023-07-30T05:36:30;4.28;;;1.25;;
22829;SDS011;11581;51.250;6.778;2023-07-30T05:38:58;5.78;;;1.35;;
22829;SDS011;11581;51.250;6.778;2023-07-30T05:41:25;5.78;;;1.20;;
22829;SDS011;11581;51.250;6.778;2023-07-30T05:43:52;6.93;;;1.30;;
22829;SDS011;11581;51.250;6.778;2023-07-30T05:46:18;5.32;;;1.02;;
22829;SDS011;11581;51.250;6.778;2023-07-30T05:48:46;5.22;;;1.35;;
22829;SDS011;11581;51.250;6.778;2023-07-30T05:51:13;5.68;;;1.40;;
22829;SDS011;11581;51.250;6.778;2023-07-30T05:53:43;4.75;;;1.15;;
22829;SDS011;11581;51.250;6.778;2023-07-30T05:56:11;3.20;;;1.00;;
22829;SDS011;11581;51.250;6.778;2023-07-30T05:58:39;5.13;;;1.23;;
22829;SDS011;11581;51.250;6.778;2023-07-30T06:01:06;7.13;;;1.58;;
22829;SDS011;11581;51.250;6.778;2023-07-30T06:03:35;3.30;;;1.00;;
22829;SDS011;11581;51.250;6.778;2023-07-30T06:06:02;3.05;;;1.10;;
22829;SDS011;11581;51.250;6.778;2023-07-30T06:08:30;5.63;;;1.27;;
22829;SDS011;11581;51.250;6.778;2023-07-30T06:10:59;3.70;;;1.10;;
22829;SDS011;11581;51.250;6.778;2023-07-30T06:13:28;4.38;;;1.42;;
22829;SDS011;11581;51.250;6.778;2023-07-30T06:15:55;6.53;;;1.40;;
22829;SDS011;11581;51.250;6.778;2023-07-30T06:18:22;3.42;;;1.00;;
22829;SDS011;11581;51.250;6.778;2023-07-30T06:20:49;4.38;;;1.30;;
22829;SDS011;11581;51.250;6.778;2023-07-30T06:23:16;4.25;;;0.90;;
22829;SDS011;11581;51.250;6.778;2023-07-30T06:25:49;6.23;;;1.30;;
22829;SDS011;11581;51.250;6.778;2023-07-30T06:28:16;4.75;;;0.98;;
22829;SDS011;11581;51.250;6.778;2023-07-30T06:30:44;4.25;;;1.40;;
22829;SDS011;11581;51.250;6.778;2023-07-30T06:33:11;4.40;;;1.05;;
22829;SDS011;11581;51.250;6.778;2023-07-30T06:35:39;4.90;;;1.27;;
22829;SDS011;11581;51.250;6.778;2023-07-30T06:38:07;5.00;;;1.20;;
22829;SDS011;11581;51.250;6.778;2023-07-30T06:40:35;6.97;;;1.88;;
22829;SDS011;11581;51.250;6.778;2023-07-30T06:43:04;3.72;;;1.33;;
22829;SDS011;11581;51.250;6.778;2023-07-30T06:45:31;5.05;;;1.30;;
22829;SDS011;11581;51.250;6.778;2023-07-30T06:48:00;4.63;;;1.20;;
22829;SDS011;11581;51.250;6.778;2023-07-30T06:50:27;7.07;;;1.70;;
22829;SDS011;11581;51.250;6.778;2023-07-30T06:52:55;10.30;;;1.90;;
22829;SDS011;11581;51.250;6.778;2023-07-30T06:55:22;5.82;;;1.58;;
22829;SDS011;11581;51.250;6.778;2023-07-30T06:57:49;4.05;;;1.30;;
22829;SDS011;11581;51.250;6.778;2023-07-30T07:00:16;5.88;;;1.63;;
22829;SDS011;11581;51.250;6.778;2023-07-30T07:02:46;5.13;;;1.55;;
22829;SDS011;11581;51.250;6.778;2023-07-30T07:05:14;6.10;;;1.48;;
22829;SDS011;11581;51.250;6.778;2023-07-30T07:07:42;5.80;;;1.45;;
22829;SDS011;11581;51.250;6.778;2023-07-30T07:10:09;6.78;;;1.60;;
22829;SDS011;11581;51.250;6.778;2023-07-30T07:12:40;4.35;;;1.23;;
22829;SDS011;11581;51.250;6.778;2023-07-30T07:15:07;4.28;;;1.30;;
22829;SDS011;11581;51.250;6.778;2023-07-30T07:17:34;5.47;;;1.67;;
22829;SDS011;11581;51.250;6.778;2023-07-30T07:20:01;5.50;;;1.35;;
22829;SDS011;11581;51.250;6.778;2023-07-30T07:22:31;4.13;;;1.23;;
22829;SDS011;11581;51.250;6.778;2023-07-30T07:24:58;7.90;;;1.38;;
22829;SDS011;11581;51.250;6.778;2023-07-30T07:27:25;8.15;;;1.60;;
22829;SDS011;11581;51.250;6.778;2023-07-30T07:29:52;7.20;;;1.77;;
22829;SDS011;11581;51.250;6.778;2023-07-30T07:32:19;5.90;;;1.48;;
22829;SDS011;11581;51.250;6.778;2023-07-30T07:34:46;4.38;;;1.23;;
22829;SDS011;11581;51.250;6.778;2023-07-30T07:37:16;4.50;;;1.20;;
22829;SDS011;11581;51.250;6.778;2023-07-30T07:39:45;6.13;;;1.55;;
22829;SDS011;11581;51.250;6.778;2023-07-30T07:42:14;9.57;;;2.03;;
22829;SDS011;11581;51.250;6.778;2023-07-30T07:44:44;7.25;;;1.77;;
22829;SDS011;11581;51.250;6.778;2023-07-30T07:47:13;6.00;;;1.60;;
22829;SDS011;11581;51.250;6.778;2023-07-30T07:49:42;5.97;;;1.55;;
22829;SDS011;11581;51.250;6.778;2023-07-30T07:52:08;6.35;;;1.55;;
22829;SDS011;11581;51.250;6.778;2023-07-30T07:54:35;6.90;;;1.55;;
22829;SDS011;11581;51.250;6.778;2023-07-30T07:57:05;5.85;;;2.00;;
22829;SDS011;11581;51.250;6.778;2023-07-30T07:59:32;5.60;;;1.17;;
22829;SDS011;11581;51.250;6.778;2023-07-30T08:01:59;7.57;;;1.70;;
22829;SDS011;11581;51.250;6.778;2023-07-30T08:04:28;10.38;;;2.30;;
22829;SDS011;11581;51.250;6.778;2023-07-30T08:06:56;7.25;;;1.73;;
22829;SDS011;11581;51.250;6.778;2023-07-30T08:09:26;6.47;;;1.52;;
22829;SDS011;11581;51.250;6.778;2023-07-30T08:11:53;7.57;;;1.60;;
22829;SDS011;11581;51.250;6.778;2023-07-30T08:14:22;7.97;;;1.95;;
22829;SDS011;11581;51.250;6.778;2023-07-30T08:16:49;5.75;;;1.38;;
22829;SDS011;11581;51.250;6.778;2023-07-30T08:19:16;11.02;;;2.17;;
22829;SDS011;11581;51.250;6.778;2023-07-30T08:21:44;7.57;;;1.50;;
22829;SDS011;11581;51.250;6.778;2023-07-30T08:24:11;4.55;;;1.63;;
22829;SDS011;11581;51.250;6.778;2023-07-30T08:26:40;7.75;;;2.05;;
22829;SDS011;11581;51.250;6.778;2023-07-30T08:29:10;8.68;;;1.65;;
22829;SDS011;11581;51.250;6.778;2023-07-30T08:31:40;8.70;;;1.77;;
22829;SDS011;11581;51.250;6.778;2023-07-30T08:34:07;11.10;;;2.47;;
22829;SDS011;11581;51.250;6.778;2023-07-30T08:36:34;8.55;;;2.10;;
22829;SDS011;11581;51.250;6.778;2023-07-30T08:39:01;6.28;;;2.80;;
22829;SDS011;11581;51.250;6.778;2023-07-30T08:41:29;5.30;;;1.55;;
22829;SDS011;11581;51.250;6.778;2023-07-30T08:43:55;7.70;;;2.38;;
22829;SDS011;11581;51.250;6.778;2023-07-30T08:46:23;5.13;;;1.75;;
22829;SDS011;11581;51.250;6.778;2023-07-30T08:48:52;6.10;;;1.80;;
22829;SDS011;11581;51.250;6.778;2023-07-30T08:51:19;6.78;;;1.90;;
22829;SDS011;11581;51.250;6.778;2023-07-30T08:53:50;9.85;;;2.08;;
22829;SDS011;11581;51.250;6.778;2023-07-30T08:56:17;7.25;;;1.80;;
22829;SDS011;11581;51.250;6.778;2023-07-30T08:58:44;8.43;;;1.83;;
22829;SDS011;11581;51.250;6.778;2023-07-30T09:01:16;12.00;;;2.10;;
22829;SDS011;11581;51.250;6.778;2023-07-30T09:03:46;8.30;;;1.80;;
22829;SDS011;11581;51.250;6.778;2023-07-30T09:06:17;6.72;;;1.58;;
22829;SDS011;11581;51.250;6.778;2023-07-30T09:11:17;8.95;;;1.60;;
22829;SDS011;11581;51.250;6.778;2023-07-30T09:13:45;7.43;;;1.88;;
22829;SDS011;11581;51.250;6.778;2023-07-30T09:16:13;7.22;;;1.73;;
22829;SDS011;11581;51.250;6.778;2023-07-30T09:18:42;6.38;;;1.55;;
22829;SDS011;11581;51.250;6.778;2023-07-30T09:21:11;6.85;;;1.73;;
22829;SDS011;11581;51.250;6.778;2023-07-30T09:23:41;7.70;;;1.95;;
22829;SDS011;11581;51.250;6.778;2023-07-30T09:26:08;6.97;;;1.60;;
22829;SDS011;11581;51.250;6.778;2023-07-30T09:28:35;5.53;;;1.73;;
22829;SDS011;11581;51.250;6.778;2023-07-30T09:31:02;8.98;;;1.88;;
22829;SDS011;11581;51.250;6.778;2023-07-30T09:33:31;4.05;;;1.40;;
22829;SDS011;11581;51.250;6.778;2023-07-30T09:36:00;4.57;;;1.40;;
22829;SDS011;11581;51.250;6.778;2023-07-30T09:38:28;9.35;;;2.33;;
22829;SDS011;11581;51.250;6.778;2023-07-30T09:41:01;5.20;;;1.52;;
22829;SDS011;11581;51.250;6.778;2023-07-30T09:43:29;7.88;;;2.38;;
22829;SDS011;11581;51.250;6.778;2023-07-30T09:46:00;5.38;;;1.75;;
22829;SDS011;11581;51.250;6.778;2023-07-30T09:48:33;5.00;;;1.70;;
22829;SDS011;11581;51.250;6.778;2023-07-30T09:51:01;6.90;;;1.55;;
22829;SDS011;11581;51.250;6.778;2023-07-30T09:53:31;5.28;;;1.60;;
22829;SDS011;11581;51.250;6.778;2023-07-30T09:56:02;9.95;;;1.75;;
22829;SDS011;11581;51.250;6.778;2023-07-30T09:58:31;5.78;;;1.42;;
22829;SDS011;11581;51.250;6.778;2023-07-30T10:00:58;5.68;;;1.50;;
22829;SDS011;11581;51.250;6.778;2023-07-30T10:03:26;5.10;;;1.38;;
22829;SDS011;11581;51.250;6.778;2023-07-30T10:05:55;4.85;;;1.30;;
22829;SDS011;11581;51.250;6.778;2023-07-30T10:08:29;4.22;;;1.10;;
22829;SDS011;11581;51.250;6.778;2023-07-30T10:11:02;5.40;;;1.30;;
22829;SDS011;11581;51.250;6.778;2023-07-30T10:13:32;4.70;;;1.52;;
22829;SDS011;11581;51.250;6.778;2023-07-30T10:15:59;4.50;;;1.35;;
22829;SDS011;11581;51.250;6.778;2023-07-30T10:18:32;5.65;;;1.60;;
22829;SDS011;11581;51.250;6.778;2023-07-30T10:21:00;5.68;;;1.63;;
22829;SDS011;11581;51.250;6.778;2023-07-30T10:23:28;8.50;;;2.03;;
22829;SDS011;11581;51.250;6.778;2023-07-30T10:25:56;6.57;;;1.58;;
22829;SDS011;11581;51.250;6.778;2023-07-30T10:28:31;6.00;;;1.63;;
22829;SDS011;11581;51.250;6.778;2023-07-30T10:33:43;3.92;;;1.30;;
22829;SDS011;11581;51.250;6.778;2023-07-30T10:36:12;5.32;;;1.20;;
22829;SDS011;11581;51.250;6.778;2023-07-30T10:38:42;4.57;;;1.52;;
22829;SDS011;11581;51.250;6.778;2023-07-30T10:41:10;4.30;;;1.42;;
22829;SDS011;11581;51.250;6.778;2023-07-30T10:43:40;4.72;;;1.52;;
22829;SDS011;11581;51.250;6.778;2023-07-30T10:46:09;6.45;;;1.95;;
22829;SDS011;11581;51.250;6.778;2023-07-30T10:48:40;3.90;;;1.20;;
22829;SDS011;11581;51.250;6.778;2023-07-30T10:51:09;4.47;;;1.27;;
22829;SDS011;11581;51.250;6.778;2023-07-30T10:53:36;3.63;;;1.30;;
22829;SDS011;11581;51.250;6.778;2023-07-30T10:56:06;3.90;;;1.10;;
22829;SDS011;11581;51.250;6.778;2023-07-30T10:58:34;4.47;;;1.17;;
22829;SDS011;11581;51.250;6.778;2023-07-30T11:01:04;4.85;;;1.02;;
22829;SDS011;11581;51.250;6.778;2023-07-30T11:03:32;3.22;;;1.08;;
22829;SDS011;11581;51.250;6.778;2023-07-30T11:06:01;4.05;;;1.50;;
22829;SDS011;11581;51.250;6.778;2023-07-30T11:08:37;5.20;;;1.10;;
22829;SDS011;11581;51.250;6.778;2023-07-30T11:11:09;5.10;;;1.38;;
22829;SDS011;11581;51.250;6.778;2023-07-30T11:13:39;4.57;;;1.25;;
22829;SDS011;11581;51.250;6.778;2023-07-30T11:16:13;4.90;;;1.27;;
22829;SDS011;11581;51.250;6.778;2023-07-30T11:18:43;3.70;;;1.15;;
22829;SDS011;11581;51.250;6.778;2023-07-30T11:21:12;4.25;;;1.00;;
22829;SDS011;11581;51.250;6.778;2023-07-30T11:23:42;5.97;;;1.20;;
22829;SDS011;11581;51.250;6.778;2023-07-30T11:26:12;4.03;;;1.05;;
22829;SDS011;11581;51.250;6.778;2023-07-30T11:28:54;4.22;;;1.30;;
22829;SDS011;11581;51.250;6.778;2023-07-30T11:31:26;5.40;;;1.00;;
22829;SDS011;11581;51.250;6.778;2023-07-30T11:33:54;3.65;;;1.15;;
22829;SDS011;11581;51.250;6.778;2023-07-30T11:36:21;3.55;;;0.95;;
22829;SDS011;11581;51.250;6.778;2023-07-30T11:38:51;7.30;;;1.45;;
22829;SDS011;11581;51.250;6.778;2023-07-30T11:41:19;3.92;;;1.20;;
22829;SDS011;11581;51.250;6.778;2023-07-30T11:43:47;5.03;;;1.25;;
22829;SDS011;11581;51.250;6.778;2023-07-30T11:46:17;3.63;;;1.13;;
22829;SDS011;11581;51.250;6.778;2023-07-30T11:48:50;5.32;;;1.00;;
22829;SDS011;11581;51.250;6.778;2023-07-30T11:51:19;3.63;;;1.00;;
22829;SDS011;11581;51.250;6.778;2023-07-30T11:53:48;4.28;;;1.33;;
22829;SDS011;11581;51.250;6.778;2023-07-30T11:56:16;4.82;;;1.13;;
22829;SDS011;11581;51.250;6.778;2023-07-30T11:58:45;3.95;;;1.00;;
22829;SDS011;11581;51.250;6.778;2023-07-30T12:01:12;4.03;;;1.33;;
22829;SDS011;11581;51.250;6.778;2023-07-30T12:03:39;5.35;;;1.27;;
22829;SDS011;11581;51.250;6.778;2023-07-30T12:06:09;2.92;;;0.95;;
22829;SDS011;11581;51.250;6.778;2023-07-30T12:08:37;4.15;;;1.05;;
22829;SDS011;11581;51.250;6.778;2023-07-30T12:11:06;3.13;;;1.15;;
22829;SDS011;11581;51.250;6.778;2023-07-30T12:13:33;3.78;;;1.30;;
22829;SDS011;11581;51.250;6.778;2023-07-30T12:16:08;3.70;;;1.05;;
22829;SDS011;11581;51.250;6.778;2023-07-30T12:18:37;2.88;;;0.90;;
22829;SDS011;11581;51.250;6.778;2023-07-30T12:21:06;5.43;;;0.90;;
22829;SDS011;11581;51.250;6.778;2023-07-30T12:23:37;2.53;;;0.65;;
22829;SDS011;11581;51.250;6.778;2023-07-30T12:26:04;2.75;;;0.90;;
22829;SDS011;11581;51.250;6.778;2023-07-30T12:28:33;4.40;;;0.60;;
22829;SDS011;11581;51.250;6.778;2023-07-30T12:31:00;2.38;;;0.68;;
22829;SDS011;11581;51.250;6.778;2023-07-30T12:33:29;2.85;;;0.98;;
22829;SDS011;11581;51.250;6.778;2023-07-30T12:35:56;1.92;;;0.70;;
22829;SDS011;11581;51.250;6.778;2023-07-30T12:38:23;3.08;;;0.73;;
22829;SDS011;11581;51.250;6.778;2023-07-30T12:40:52;1.88;;;0.60;;
22829;SDS011;11581;51.250;6.778;2023-07-30T12:43:19;4.80;;;1.05;;
22829;SDS011;11581;51.250;6.778;2023-07-30T12:45:46;1.83;;;0.60;;
22829;SDS011;11581;51.250;6.778;2023-07-30T12:48:13;4.85;;;1.00;;
22829;SDS011;11581;51.250;6.778;2023-07-30T12:50:40;4.45;;;1.00;;
22829;SDS011;11581;51.250;6.778;2023-07-30T12:53:08;3.97;;;0.90;;
22829;SDS011;11581;51.250;6.778;2023-07-30T12:55:36;3.95;;;1.00;;
22829;SDS011;11581;51.250;6.778;2023-07-30T12:58:06;1.98;;;1.00;;
22829;SDS011;11581;51.250;6.778;2023-07-30T13:00:33;4.03;;;0.80;;
22829;SDS011;11581;51.250;6.778;2023-07-30T13:03:01;2.72;;;0.85;;
22829;SDS011;11581;51.250;6.778;2023-07-30T13:05:29;4.13;;;1.20;;
22829;SDS011;11581;51.250;6.778;2023-07-30T13:07:57;5.40;;;0.95;;
22829;SDS011;11581;51.250;6.778;2023-07-30T13:10:24;2.17;;;0.68;;
22829;SDS011;11581;51.250;6.778;2023-07-30T13:12:50;2.78;;;0.90;;
22829;SDS011;11581;51.250;6.778;2023-07-30T13:15:19;2.33;;;0.75;;
22829;SDS011;11581;51.250;6.778;2023-07-30T13:17:46;2.95;;;0.90;;
22829;SDS011;11581;51.250;6.778;2023-07-30T13:20:13;5.45;;;0.90;;
22829;SDS011;11581;51.250;6.778;2023-07-30T13:22:40;4.18;;;1.15;;
22829;SDS011;11581;51.250;6.778;2023-07-30T13:25:07;4.45;;;1.50;;
22829;SDS011;11581;51.250;6.778;2023-07-30T13:27:34;3.13;;;1.10;;
22829;SDS011;11581;51.250;6.778;2023-07-30T13:30:01;11.43;;;1.38;;
22829;SDS011;11581;51.250;6.778;2023-07-30T13:32:29;3.35;;;0.80;;
22829;SDS011;11581;51.250;6.778;2023-07-30T13:34:57;2.70;;;0.70;;
22829;SDS011;11581;51.250;6.778;2023-07-30T13:37:24;3.85;;;1.08;;
22829;SDS011;11581;51.250;6.778;2023-07-30T13:39:50;4.47;;;1.08;;
22829;SDS011;11581;51.250;6.778;2023-07-30T13:42:17;4.85;;;1.27;;
22829;SDS011;11581;51.250;6.778;2023-07-30T13:44:44;3.85;;;1.08;;
22829;SDS011;11581;51.250;6.778;2023-07-30T13:47:11;5.20;;;1.02;;
22829;SDS011;11581;51.250;6.778;2023-07-30T13:49:39;5.53;;;1.05;;
22829;SDS011;11581;51.250;6.778;2023-07-30T13:52:06;3.60;;;1.13;;
22829;SDS011;11581;51.250;6.778;2023-07-30T13:54:36;3.13;;;0.95;;
22829;SDS011;11581;51.250;6.778;2023-07-30T13:57:04;2.33;;;0.77;;
22829;SDS011;11581;51.250;6.778;2023-07-30T13:59:31;3.10;;;0.88;;
22829;SDS011;11581;51.250;6.778;2023-07-30T14:01:59;5.53;;;1.02;;
22829;SDS011;11581;51.250;6.778;2023-07-30T14:04:26;3.45;;;0.90;;
22829;SDS011;11581;51.250;6.778;2023-07-30T14:06:55;4.15;;;1.25;;
22829;SDS011;11581;51.250;6.778;2023-07-30T14:09:22;4.50;;;1.10;;
22829;SDS011;11581;51.250;6.778;2023-07-30T14:11:49;2.97;;;1.00;;
22829;SDS011;11581;51.250;6.778;2023-07-30T14:14:16;5.22;;;1.00;;
22829;SDS011;11581;51.250;6.778;2023-07-30T14:16:45;4.50;;;1.10;;
22829;SDS011;11581;51.250;6.778;2023-07-30T14:19:13;7.10;;;1.73;;
22829;SDS011;11581;51.250;6.778;2023-07-30T14:21:40;3.20;;;0.93;;
22829;SDS011;11581;51.250;6.778;2023-07-30T14:24:10;5.13;;;0.88;;
22829;SDS011;11581;51.250;6.778;2023-07-30T14:26:38;7.47;;;1.10;;
22829;SDS011;11581;51.250;6.778;2023-07-30T14:29:05;4.47;;;1.27;;
22829;SDS011;11581;51.250;6.778;2023-07-30T14:31:32;4.97;;;1.48;;
22829;SDS011;11581;51.250;6.778;2023-07-30T14:33:59;3.63;;;0.88;;
22829;SDS011;11581;51.250;6.778;2023-07-30T14:36:27;2.95;;;0.88;;
22829;SDS011;11581;51.250;6.778;2023-07-30T14:38:56;3.55;;;1.05;;
22829;SDS011;11581;51.250;6.778;2023-07-30T14:41:24;5.53;;;1.30;;
22829;SDS011;11581;51.250;6.778;2023-07-30T14:43:51;5.75;;;1.20;;
22829;SDS011;11581;51.250;6.778;2023-07-30T14:46:18;3.95;;;1.63;;
22829;SDS011;11581;51.250;6.778;2023-07-30T14:48:46;5.70;;;1.30;;
22829;SDS011;11581;51.250;6.778;2023-07-30T14:51:15;3.35;;;1.13;;
22829;SDS011;11581;51.250;6.778;2023-07-30T14:53:41;3.22;;;0.77;;
22829;SDS011;11581;51.250;6.778;2023-07-30T14:56:09;5.03;;;1.80;;
22829;SDS011;11581;51.250;6.778;2023-07-30T14:58:37;5.10;;;1.27;;